Time;durP1;ratioP1;P1;durP2;ratioP2;P2;SDS_P1;SDS_P2;PMS_P1;PMS_P2;Temp;Humidity;BMP_temperature;BMP_pressure;BME280_temperature;BME280_humidity;BME280_pressure;Samples;Min_cycle;Max_cycle;Signal;HPM_P1;HPM_P2
2023/05/14 07:12:39;;;;;;;;;53.50;44.50;;;;;;;;5977808;22;26570;-67
2023/05/14 07:15:05;;;;;;;;;57.50;45.75;;;;;;;;6277718;22;11460;-76
2023/05/14 07:17:30;;;;;;;;;58.75;45.25;;;;;;;;6279961;22;12254;-74
2023/05/14 07:19:55;;;;;;;;;57.25;47.00;;;;;;;;6279945;22;8859;-73
2023/05/14 07:22:21;;;;;;;;;57.50;43.25;;;;;;;;6249370;22;8855;-70
2023/05/14 07:24:46;;;;;;;;;56.75;45.25;;;;;;;;6279360;22;8731;-73
2023/05/14 07:27:11;;;;;;;;;47.50;41.00;;;;;;;;6280157;22;10097;-72
2023/05/14 07:29:36;;;;;;;;;51.25;43.00;;;;;;;;6253313;22;8786;-72
2023/05/14 07:32:02;;;;;;;;;51.75;42.75;;;;;;;;6249655;22;8796;-72
2023/05/14 07:34:27;;;;;;;;;40.75;37.75;;;;;;;;6280230;22;9622;-71
2023/05/14 07:36:52;;;;;;;;;50.50;42.00;;;;;;;;6276048;22;8774;-70
2023/05/14 07:39:17;;;;;;;;;56.75;45.50;;;;;;;;6277711;22;8762;-70
2023/05/14 07:41:43;;;;;;;;;48.50;37.25;;;;;;;;6275808;22;8770;-69
2023/05/14 07:44:08;;;;;;;;;57.50;45.00;;;;;;;;6248858;22;8766;-70
2023/05/14 07:46:33;;;;;;;;;51.00;40.50;;;;;;;;6278240;22;8750;-70
2023/05/14 07:48:59;;;;;;;;;56.75;43.25;;;;;;;;6279401;22;8882;-69
2023/05/14 07:51:27;;;;;;;;;57.00;45.50;;;;;;;;6280778;22;11583;-69
2023/05/14 07:53:53;;;;;;;;;54.75;43.50;;;;;;;;6281031;22;8735;-69
2023/05/14 07:56:18;;;;;;;;;46.75;40.75;;;;;;;;6280140;22;11459;-69
2023/05/14 07:58:44;;;;;;;;;49.00;40.00;;;;;;;;6280178;22;11501;-69
2023/05/14 08:01:09;;;;;;;;;51.50;36.00;;;;;;;;6279546;22;8782;-69
2023/05/14 08:03:34;;;;;;;;;49.50;40.75;;;;;;;;6280479;22;8764;-69
2023/05/14 08:05:59;;;;;;;;;51.75;44.50;;;;;;;;6281174;22;8805;-69
2023/05/14 08:08:26;;;;;;;;;51.00;37.50;;;;;;;;6281050;22;8785;-69
2023/05/14 08:10:51;;;;;;;;;46.25;37.75;;;;;;;;6281396;22;8747;-69
2023/05/14 08:13:16;;;;;;;;;56.00;43.25;;;;;;;;6280437;22;11494;-70
2023/05/14 08:15:41;;;;;;;;;52.25;44.25;;;;;;;;6280867;22;8793;-70
2023/05/14 08:18:06;;;;;;;;;53.75;41.75;;;;;;;;6278998;22;8770;-71
2023/05/14 08:20:31;;;;;;;;;49.50;41.00;;;;;;;;6278981;22;8786;-72
2023/05/14 08:22:57;;;;;;;;;46.75;40.00;;;;;;;;6280955;22;8755;-72
2023/05/14 08:25:22;;;;;;;;;50.00;41.00;;;;;;;;6280278;22;8912;-74
2023/05/14 08:27:48;;;;;;;;;52.00;42.50;;;;;;;;6252580;22;9557;-73
2023/05/14 08:30:13;;;;;;;;;50.25;41.25;;;;;;;;6281225;22;9650;-69
2023/05/14 08:32:38;;;;;;;;;53.50;42.50;;;;;;;;6280581;22;8766;-69
2023/05/14 08:35:03;;;;;;;;;55.00;44.00;;;;;;;;6280420;22;8743;-69
2023/05/14 08:37:29;;;;;;;;;54.00;44.00;;;;;;;;6280923;22;8876;-76
2023/05/14 08:39:55;;;;;;;;;52.50;44.25;;;;;;;;6281478;22;8742;-75
2023/05/14 08:42:23;;;;;;;;;54.25;45.00;;;;;;;;6278345;22;8773;-72
2023/05/14 08:44:48;;;;;;;;;54.25;44.25;;;;;;;;6280467;22;11435;-73
2023/05/14 08:47:14;;;;;;;;;52.75;43.50;;;;;;;;6279527;22;11471;-73
2023/05/14 08:49:40;;;;;;;;;49.00;42.00;;;;;;;;6281522;22;8779;-73
2023/05/14 08:52:07;;;;;;;;;51.00;42.00;;;;;;;;6279648;22;8742;-76
2023/05/14 08:54:32;;;;;;;;;45.25;38.25;;;;;;;;6279907;22;11434;-75
2023/05/14 08:56:58;;;;;;;;;50.00;38.50;;;;;;;;6279630;22;11652;-75
2023/05/14 08:59:23;;;;;;;;;55.00;40.75;;;;;;;;6280644;22;8785;-76
2023/05/14 09:01:52;;;;;;;;;48.25;40.75;;;;;;;;6280768;22;8739;-76
2023/05/14 09:04:22;;;;;;;;;47.00;39.00;;;;;;;;6253690;22;8765;-82
2023/05/14 09:06:48;;;;;;;;;48.75;41.00;;;;;;;;6281673;22;11476;-76
2023/05/14 09:09:14;;;;;;;;;44.50;39.75;;;;;;;;6280184;22;11460;-74
2023/05/14 09:11:40;;;;;;;;;52.50;42.50;;;;;;;;6279700;22;12258;-78
2023/05/14 09:14:05;;;;;;;;;47.00;39.00;;;;;;;;6279087;22;8789;-76
2023/05/14 09:16:30;;;;;;;;;48.50;40.75;;;;;;;;6280440;22;8759;-75
2023/05/14 09:18:55;;;;;;;;;44.25;36.75;;;;;;;;6280329;22;8878;-76
2023/05/14 09:21:20;;;;;;;;;54.25;42.75;;;;;;;;6281151;22;9100;-76
2023/05/14 09:23:48;;;;;;;;;51.25;39.25;;;;;;;;6281089;22;8869;-76
2023/05/14 09:26:15;;;;;;;;;53.00;43.00;;;;;;;;6280902;22;8750;-76
2023/05/14 09:28:42;;;;;;;;;48.75;41.25;;;;;;;;6280463;22;11475;-75
2023/05/14 09:31:08;;;;;;;;;54.50;43.00;;;;;;;;6280111;22;11457;-75
2023/05/14 09:33:33;;;;;;;;;49.50;42.25;;;;;;;;6277566;22;11538;-76
2023/05/14 09:35:59;;;;;;;;;50.50;41.00;;;;;;;;6279478;22;8751;-74
2023/05/14 09:38:31;;;;;;;;;41.75;38.25;;;;;;;;6278614;22;8737;-76
2023/05/14 09:40:57;;;;;;;;;50.00;40.25;;;;;;;;6279528;22;11488;-76
2023/05/14 09:43:22;;;;;;;;;55.25;42.75;;;;;;;;6280228;22;11460;-71
2023/05/14 09:45:47;;;;;;;;;50.00;41.00;;;;;;;;6252067;22;8762;-74
2023/05/14 09:48:12;;;;;;;;;54.75;44.50;;;;;;;;6279085;22;8762;-73
2023/05/14 09:50:41;;;;;;;;;51.75;43.25;;;;;;;;6279950;22;8805;-76
2023/05/14 09:53:07;;;;;;;;;51.25;43.00;;;;;;;;6279976;22;8759;-73
2023/05/14 09:55:32;;;;;;;;;47.00;38.75;;;;;;;;6280528;22;11481;-73
2023/05/14 09:57:57;;;;;;;;;50.50;39.50;;;;;;;;6280559;22;8872;-74
2023/05/14 10:00:22;;;;;;;;;54.25;43.50;;;;;;;;6281613;22;8781;-74
2023/05/14 10:02:50;;;;;;;;;50.25;42.00;;;;;;;;6280188;22;8754;-74
2023/05/14 10:05:15;;;;;;;;;50.50;41.50;;;;;;;;6280602;22;9527;-74
2023/05/14 10:07:46;;;;;;;;;69.50;54.25;;;;;;;;6280782;22;11504;-75
2023/05/14 10:10:14;;;;;;;;;98.67;94.00;;;;;;;;6280676;22;8762;-75
2023/05/14 10:12:39;;;;;;;;;43.50;37.25;;;;;;;;6280548;22;8786;-75
2023/05/14 10:15:25;;;;;;;;;51.75;40.75;;;;;;;;6280957;22;11501;-75
2023/05/14 10:17:54;;;;;;;;;47.25;39.75;;;;;;;;6281977;22;8764;-75
2023/05/14 10:20:21;;;;;;;;;49.00;36.50;;;;;;;;6281208;22;11454;-76
2023/05/14 10:22:46;;;;;;;;;50.25;42.00;;;;;;;;6280052;22;11445;-74
2023/05/14 10:25:12;;;;;;;;;49.25;40.00;;;;;;;;6280734;22;11558;-75
2023/05/14 10:27:38;;;;;;;;;48.50;41.25;;;;;;;;6281494;22;8876;-78
2023/05/14 10:30:04;;;;;;;;;53.00;40.25;;;;;;;;6281840;22;8774;-77
2023/05/14 10:32:31;;;;;;;;;47.00;38.25;;;;;;;;6280974;22;9471;-77
2023/05/14 10:34:57;;;;;;;;;44.00;37.00;;;;;;;;6282091;22;11451;-81
2023/05/14 10:37:24;;;;;;;;;53.25;42.50;;;;;;;;6281122;22;11608;-75
2023/05/14 10:39:53;;;;;;;;;47.00;38.50;;;;;;;;6281390;22;8723;-79
2023/05/14 10:42:26;;;;;;;;;45.25;33.25;;;;;;;;6280806;22;11445;-84
2023/05/14 10:44:57;;;;;;;;;43.75;38.25;;;;;;;;6281662;22;11504;-77
2023/05/14 10:47:22;;;;;;;;;46.75;37.25;;;;;;;;6281659;22;11481;-83
2023/05/14 10:49:48;;;;;;;;;47.25;39.25;;;;;;;;6281321;22;11491;-79
2023/05/14 10:52:15;;;;;;;;;43.50;32.75;;;;;;;;6279704;22;8896;-82
2023/05/14 10:54:44;;;;;;;;;42.25;36.50;;;;;;;;6281893;22;8735;-81
2023/05/14 10:57:11;;;;;;;;;47.25;37.50;;;;;;;;6281783;22;11565;-80
2023/05/14 10:59:36;;;;;;;;;38.50;34.50;;;;;;;;6281357;22;11449;-82
2023/05/14 11:02:03;;;;;;;;;46.00;37.00;;;;;;;;6282156;22;11614;-77
2023/05/14 11:04:30;;;;;;;;;36.50;33.50;;;;;;;;6281433;22;9842;-77
2023/05/14 11:06:56;;;;;;;;;83.00;77.67;;;;;;;;6280827;22;11444;-78
2023/05/14 11:09:22;;;;;;;;;137.00;127.50;;;;;;;;6282362;22;8900;-78
2023/05/14 11:11:47;;;;;;;;;95.67;84.33;;;;;;;;6281385;22;8738;-76
2023/05/14 11:14:13;;;;;;;;;73.25;61.50;;;;;;;;6280681;22;8798;-77
2023/05/14 11:16:40;;;;;;;;;60.50;47.75;;;;;;;;6280946;22;8781;-75
2023/05/14 11:19:05;;;;;;;;;42.75;36.25;;;;;;;;6281736;22;8742;-83
2023/05/14 11:21:31;;;;;;;;;53.00;45.00;;;;;;;;6281366;22;11552;-77
2023/05/14 11:23:56;;;;;;;;;50.00;40.50;;;;;;;;6281825;22;9876;-76
2023/05/14 11:26:22;;;;;;;;;58.50;47.00;;;;;;;;6281196;22;8801;-78
2023/05/14 11:28:47;;;;;;;;;43.25;35.25;;;;;;;;6281364;22;8754;-76
2023/05/14 11:31:13;;;;;;;;;46.50;39.00;;;;;;;;6253959;22;8746;-78
2023/05/14 11:33:38;;;;;;;;;47.00;40.50;;;;;;;;6281589;22;8758;-82
2023/05/14 11:36:04;;;;;;;;;43.25;35.25;;;;;;;;6280838;22;8893;-75
2023/05/14 11:38:29;;;;;;;;;48.75;41.50;;;;;;;;6280600;22;9554;-81
2023/05/14 11:40:55;;;;;;;;;62.00;49.00;;;;;;;;6282103;22;9554;-79
2023/05/14 11:43:22;;;;;;;;;39.25;34.25;;;;;;;;6281622;22;8769;-80
2023/05/14 11:45:51;;;;;;;;;38.75;33.00;;;;;;;;6281631;22;8800;-80
2023/05/14 11:48:17;;;;;;;;;38.50;35.00;;;;;;;;6281260;22;11453;-76
2023/05/14 11:50:50;;;;;;;;;43.75;37.25;;;;;;;;6280821;22;11493;-76
2023/05/14 11:53:19;;;;;;;;;48.50;41.50;;;;;;;;6281090;22;11462;-80
2023/05/14 11:55:45;;;;;;;;;43.75;38.00;;;;;;;;6280258;22;11525;-76
2023/05/14 11:58:11;;;;;;;;;41.50;34.00;;;;;;;;6281213;22;11539;-79
2023/05/14 12:00:37;;;;;;;;;45.75;38.50;;;;;;;;6281372;22;8810;-73
2023/05/14 12:03:02;;;;;;;;;44.00;36.75;;;;;;;;6279678;22;8797;-72
2023/05/14 12:05:27;;;;;;;;;46.75;39.00;;;;;;;;6280713;22;8854;-72
2023/05/14 12:07:52;;;;;;;;;48.25;40.25;;;;;;;;6280576;22;8746;-75
2023/05/14 12:10:17;;;;;;;;;48.75;36.50;;;;;;;;6281100;22;8775;-76
2023/05/14 12:12:44;;;;;;;;;33.25;30.75;;;;;;;;6281414;22;8868;-77
2023/05/14 12:15:13;;;;;;;;;40.50;34.25;;;;;;;;6281161;22;8793;-72
2023/05/14 12:17:38;;;;;;;;;37.25;33.50;;;;;;;;6281127;22;11423;-77
2023/05/14 12:20:05;;;;;;;;;37.00;33.25;;;;;;;;6281371;22;11512;-74
2023/05/14 12:22:30;;;;;;;;;43.25;36.50;;;;;;;;6280429;22;8730;-76
2023/05/14 12:24:56;;;;;;;;;34.75;32.75;;;;;;;;6280894;22;11477;-84
2023/05/14 12:27:23;;;;;;;;;41.75;36.75;;;;;;;;6281338;22;8769;-83
2023/05/14 12:29:48;;;;;;;;;41.50;36.00;;;;;;;;6280296;22;8781;-75
2023/05/14 12:32:13;;;;;;;;;46.00;38.25;;;;;;;;6279873;22;11504;-81
2023/05/14 12:34:38;;;;;;;;;43.00;36.75;;;;;;;;6280818;22;9537;-81
2023/05/14 12:37:04;;;;;;;;;40.25;35.75;;;;;;;;6281554;22;8778;-77
2023/05/14 12:39:31;;;;;;;;;46.25;38.75;;;;;;;;6280655;22;8793;-78
2023/05/14 12:41:56;;;;;;;;;36.25;33.50;;;;;;;;6282021;22;8845;-81
2023/05/14 12:44:21;;;;;;;;;38.50;35.00;;;;;;;;6284874;22;11488;-86
2023/05/14 12:46:46;;;;;;;;;39.25;35.50;;;;;;;;6282138;22;8856;-74
2023/05/14 12:49:11;;;;;;;;;42.00;36.00;;;;;;;;6280664;22;8786;-74
2023/05/14 12:51:37;;;;;;;;;38.00;33.25;;;;;;;;6280714;22;8751;-75
2023/05/14 12:54:02;;;;;;;;;39.50;34.25;;;;;;;;6281383;22;8754;-71
2023/05/14 12:56:29;;;;;;;;;46.50;37.25;;;;;;;;6280748;22;8755;-78
2023/05/14 12:58:55;;;;;;;;;35.25;33.00;;;;;;;;6281427;22;8707;-78
2023/05/14 13:01:20;;;;;;;;;45.00;39.25;;;;;;;;6254015;22;11528;-84
2023/05/14 13:03:45;;;;;;;;;70.75;59.75;;;;;;;;6280530;22;8763;-82
2023/05/14 13:06:11;;;;;;;;;54.25;44.75;;;;;;;;6281470;22;8780;-82
2023/05/14 13:08:36;;;;;;;;;36.50;34.25;;;;;;;;6252520;22;9261;-76
2023/05/14 13:11:01;;;;;;;;;56.25;46.50;;;;;;;;6280482;22;8790;-80
2023/05/14 13:13:26;;;;;;;;;681.50;652.00;;;;;;;;6279860;22;8824;-77
2023/05/14 13:15:51;;;;;;;;;64.50;51.25;;;;;;;;6280515;22;8739;-77
2023/05/14 13:18:17;;;;;;;;;117.00;109.33;;;;;;;;6281617;22;8920;-79
2023/05/14 13:20:42;;;;;;;;;63.75;51.50;;;;;;;;6280824;22;8762;-82
2023/05/14 13:23:07;;;;;;;;;36.50;33.50;;;;;;;;6281375;22;9490;-82
2023/05/14 13:25:33;;;;;;;;;118.67;114.00;;;;;;;;6281012;22;8849;-87
2023/05/14 13:27:58;;;;;;;;;69.67;56.33;;;;;;;;6281847;22;8735;-82
2023/05/14 13:30:23;;;;;;;;;44.00;37.25;;;;;;;;6281320;22;8916;-74
2023/05/14 13:32:48;;;;;;;;;44.50;35.50;;;;;;;;6280035;22;8767;-77
2023/05/14 13:35:14;;;;;;;;;73.25;63.25;;;;;;;;6280144;22;8770;-84
2023/05/14 13:37:39;;;;;;;;;253.67;243.67;;;;;;;;6280310;22;8769;-77
2023/05/14 13:40:07;;;;;;;;;31.75;28.25;;;;;;;;6280241;22;8770;-80
2023/05/14 13:42:32;;;;;;;;;33.75;31.50;;;;;;;;6280426;22;8747;-78
2023/05/14 13:44:57;;;;;;;;;28.75;28.25;;;;;;;;6279883;22;11419;-75
2023/05/14 13:47:23;;;;;;;;;32.75;30.00;;;;;;;;6280640;22;8785;-80
2023/05/14 13:49:48;;;;;;;;;25.50;25.50;;;;;;;;6281538;22;8822;-78
2023/05/14 13:52:14;;;;;;;;;32.00;30.25;;;;;;;;6279688;22;8801;-73
2023/05/14 13:54:39;;;;;;;;;27.75;26.75;;;;;;;;6280559;22;8754;-77
2023/05/14 13:57:04;;;;;;;;;31.00;29.00;;;;;;;;6279702;22;8735;-78
2023/05/14 13:59:30;;;;;;;;;28.25;26.50;;;;;;;;6280684;22;8774;-85
2023/05/14 14:01:55;;;;;;;;;30.75;29.75;;;;;;;;6281579;22;8763;-79
2023/05/14 14:04:21;;;;;;;;;30.50;29.75;;;;;;;;6281103;22;8758;-77
2023/05/14 14:06:46;;;;;;;;;30.50;27.75;;;;;;;;6280792;22;8877;-75
2023/05/14 14:09:12;;;;;;;;;33.00;28.00;;;;;;;;6279490;22;8798;-80
2023/05/14 14:11:37;;;;;;;;;28.50;27.50;;;;;;;;6279985;22;8763;-77
2023/05/14 14:14:03;;;;;;;;;21.00;21.00;;;;;;;;6279421;22;12182;-72
2023/05/14 14:16:28;;;;;;;;;22.00;21.60;;;;;;;;6281060;22;8758;-83
2023/05/14 14:18:53;;;;;;;;;26.25;25.75;;;;;;;;6280973;22;8845;-86
2023/05/14 14:21:19;;;;;;;;;33.75;28.75;;;;;;;;6280427;22;8889;-85
2023/05/14 14:23:45;;;;;;;;;22.75;22.75;;;;;;;;6281542;22;8769;-86
2023/05/14 14:26:10;;;;;;;;;25.50;23.75;;;;;;;;6280132;22;12493;-79
2023/05/14 14:28:35;;;;;;;;;21.75;21.25;;;;;;;;6280634;22;8758;-76
2023/05/14 14:31:01;;;;;;;;;25.25;25.00;;;;;;;;6252040;22;8811;-82
2023/05/14 14:33:26;;;;;;;;;24.50;23.00;;;;;;;;6280106;22;8868;-78
2023/05/14 14:35:51;;;;;;;;;22.75;22.25;;;;;;;;6279721;22;8772;-82
2023/05/14 14:38:17;;;;;;;;;21.00;20.25;;;;;;;;6278960;22;9551;-78
2023/05/14 14:40:42;;;;;;;;;22.75;22.25;;;;;;;;6279955;22;8762;-80
2023/05/14 14:43:07;;;;;;;;;18.00;17.50;;;;;;;;6280489;22;8856;-79
2023/05/14 14:45:32;;;;;;;;;13.00;13.00;;;;;;;;6252388;22;8782;-82
2023/05/14 14:48:36;;;;;;;;;23.50;21.50;;;;;;;;6280608;22;9825;-77
2023/05/14 14:51:01;;;;;;;;;22.50;20.00;;;;;;;;6126629;23;8777;-75
2023/05/14 14:53:27;;;;;;;;;23.00;22.50;;;;;;;;6127106;23;11037;-77
2023/05/14 14:55:52;;;;;;;;;20.50;20.50;;;;;;;;6127433;23;8787;-84
2023/05/14 14:58:18;;;;;;;;;23.25;19.50;;;;;;;;6103263;23;9763;-80
2023/05/14 15:00:44;;;;;;;;;21.75;21.50;;;;;;;;6102726;23;8759;-82
2023/05/14 15:03:09;;;;;;;;;15.50;15.50;;;;;;;;6126233;23;11004;-77
2023/05/14 15:05:35;;;;;;;;;18.75;18.75;;;;;;;;6099828;23;8789;-83
2023/05/14 15:08:00;;;;;;;;;17.00;17.00;;;;;;;;6125969;23;8844;-83
2023/05/14 15:10:29;;;;;;;;;18.00;16.75;;;;;;;;6126288;23;8809;-84
2023/05/14 15:12:58;;;;;;;;;20.00;19.25;;;;;;;;6126708;23;8788;-79
2023/05/14 15:15:23;;;;;;;;;21.00;18.00;;;;;;;;6155177;23;10988;-79
2023/05/14 15:17:48;;;;;;;;;17.50;17.00;;;;;;;;6156251;23;10995;-84
2023/05/14 15:20:13;;;;;;;;;16.00;14.50;;;;;;;;6157333;23;8801;-79
2023/05/14 15:22:39;;;;;;;;;12.25;12.25;;;;;;;;6156023;23;8754;-81
2023/05/14 15:25:04;;;;;;;;;21.25;17.75;;;;;;;;6222627;22;8774;-85
2023/05/14 15:27:29;;;;;;;;;17.75;17.75;;;;;;;;6282285;22;8831;-78
2023/05/14 15:29:54;;;;;;;;;16.75;15.75;;;;;;;;6281234;22;8820;-80
2023/05/14 15:32:20;;;;;;;;;14.50;14.25;;;;;;;;6280149;22;8774;-79
2023/05/14 15:34:45;;;;;;;;;16.50;14.25;;;;;;;;6280524;22;8763;-82
2023/05/14 15:37:10;;;;;;;;;16.00;15.75;;;;;;;;6280619;22;8758;-79
2023/05/14 15:39:35;;;;;;;;;17.25;17.00;;;;;;;;6281679;22;8781;-76
2023/05/14 15:42:00;;;;;;;;;12.25;12.25;;;;;;;;6280960;22;8777;-76
2023/05/14 15:44:25;;;;;;;;;15.75;14.50;;;;;;;;6281309;22;9475;-80
2023/05/14 15:46:51;;;;;;;;;15.25;14.00;;;;;;;;6281393;22;8872;-75
2023/05/14 15:49:16;;;;;;;;;18.00;18.00;;;;;;;;6281544;22;8785;-79
2023/05/14 15:51:41;;;;;;;;;18.00;17.75;;;;;;;;6281422;22;8801;-74
2023/05/14 15:54:07;;;;;;;;;14.25;13.25;;;;;;;;6280711;22;8820;-77
2023/05/14 15:56:32;;;;;;;;;17.50;16.00;;;;;;;;6280274;22;8808;-76
2023/05/14 15:58:57;;;;;;;;;16.00;13.00;;;;;;;;6280862;22;8755;-77
2023/05/14 16:01:22;;;;;;;;;13.50;13.50;;;;;;;;6281164;22;8754;-77
2023/05/14 16:03:47;;;;;;;;;16.00;16.00;;;;;;;;6280557;22;8766;-76
2023/05/14 16:06:13;;;;;;;;;19.25;16.75;;;;;;;;6281343;22;8844;-73
2023/05/14 16:08:38;;;;;;;;;18.50;16.75;;;;;;;;6281151;22;8853;-75
2023/05/14 16:11:03;;;;;;;;;15.75;15.75;;;;;;;;6281210;22;8770;-73
2023/05/14 16:13:29;;;;;;;;;15.50;14.00;;;;;;;;6278757;22;8782;-77
2023/05/14 16:15:54;;;;;;;;;18.50;18.50;;;;;;;;6280504;22;8896;-73
2023/05/14 16:18:19;;;;;;;;;16.25;15.25;;;;;;;;6281001;22;8758;-73
2023/05/14 16:20:44;;;;;;;;;14.00;14.00;;;;;;;;6281223;22;8766;-74
2023/05/14 16:23:09;;;;;;;;;16.75;16.75;;;;;;;;6281391;22;8759;-72
2023/05/14 16:25:35;;;;;;;;;16.25;16.25;;;;;;;;6254029;22;9015;-72
2023/05/14 16:28:00;;;;;;;;;16.50;14.75;;;;;;;;6280978;22;8774;-72
2023/05/14 16:30:25;;;;;;;;;15.25;14.00;;;;;;;;6280782;22;8777;-72
2023/05/14 16:32:50;;;;;;;;;13.75;12.50;;;;;;;;6281646;22;8758;-70
2023/05/14 16:35:15;;;;;;;;;14.50;14.50;;;;;;;;6281842;22;8792;-71
2023/05/14 16:37:41;;;;;;;;;17.25;15.50;;;;;;;;6281138;22;8770;-71
2023/05/14 16:40:09;;;;;;;;;13.00;13.00;;;;;;;;6280836;22;9582;-70
2023/05/14 16:42:35;;;;;;;;;18.75;18.00;;;;;;;;6280971;22;9512;-70
2023/05/14 16:45:00;;;;;;;;;16.50;14.25;;;;;;;;6280670;22;10741;-71
2023/05/14 16:47:25;;;;;;;;;15.25;15.25;;;;;;;;6281343;22;8750;-71
2023/05/14 16:49:50;;;;;;;;;16.00;16.00;;;;;;;;6281227;22;8782;-71
2023/05/14 16:52:15;;;;;;;;;13.50;13.50;;;;;;;;6281663;22;8859;-73
2023/05/14 16:54:40;;;;;;;;;18.00;14.00;;;;;;;;6281061;22;8762;-68
2023/05/14 16:57:06;;;;;;;;;17.25;17.25;;;;;;;;6281780;22;8885;-71
2023/05/14 16:59:31;;;;;;;;;24.75;24.50;;;;;;;;6281508;22;8855;-71
2023/05/14 17:01:56;;;;;;;;;14.25;14.25;;;;;;;;6281001;22;8853;-69
2023/05/14 17:04:23;;;;;;;;;16.25;15.75;;;;;;;;6281292;22;8829;-71
2023/05/14 17:06:48;;;;;;;;;19.25;15.50;;;;;;;;6281152;22;9555;-71
2023/05/14 17:09:14;;;;;;;;;18.25;17.50;;;;;;;;6280724;22;10826;-71
2023/05/14 17:11:39;;;;;;;;;32.50;30.25;;;;;;;;6281191;22;8796;-71
2023/05/14 17:14:04;;;;;;;;;57.00;46.50;;;;;;;;6267698;22;8812;-72
2023/05/14 17:16:30;;;;;;;;;97.25;95.00;;;;;;;;6311921;22;8760;-72
2023/05/14 17:18:55;;;;;;;;;59.50;47.75;;;;;;;;6311060;22;8802;-73
2023/05/14 17:21:20;;;;;;;;;172.50;157.00;;;;;;;;6283767;22;8811;-72
2023/05/14 17:23:45;;;;;;;;;347.00;304.00;;;;;;;;6311361;22;8834;-72
2023/05/14 17:26:10;;;;;;;;;63.25;50.25;;;;;;;;6312557;22;8870;-70
2023/05/14 17:28:36;;;;;;;;;71.00;56.33;;;;;;;;6311411;22;8756;-73
2023/05/14 17:31:01;;;;;;;;;87.00;81.33;;;;;;;;6311791;22;8836;-72
2023/05/14 17:33:26;;;;;;;;;33.50;30.25;;;;;;;;6312372;22;8761;-72
2023/05/14 17:35:51;;;;;;;;;106.50;96.50;;;;;;;;6312441;22;8951;-74
2023/05/14 17:38:16;;;;;;;;;12.25;12.25;;;;;;;;6311042;22;8761;-76
2023/05/14 17:40:42;;;;;;;;;27.25;23.50;;;;;;;;6311360;22;8800;-77
2023/05/14 17:43:07;;;;;;;;;20.00;20.00;;;;;;;;6311834;22;8772;-73
2023/05/14 17:45:32;;;;;;;;;44.25;38.75;;;;;;;;6310969;22;8889;-82
2023/05/14 17:47:57;;;;;;;;;13.50;12.00;;;;;;;;6282771;22;8780;-76
2023/05/14 17:50:23;;;;;;;;;17.00;14.50;;;;;;;;6311679;22;8796;-80
2023/05/14 17:52:48;;;;;;;;;15.75;14.50;;;;;;;;6310817;22;8760;-80
2023/05/14 17:55:13;;;;;;;;;17.00;17.00;;;;;;;;6311338;22;8872;-79
2023/05/14 17:57:40;;;;;;;;;15.00;15.00;;;;;;;;6311489;22;8764;-82
2023/05/14 18:00:06;;;;;;;;;18.75;18.75;;;;;;;;6311614;22;9490;-83
2023/05/14 18:02:31;;;;;;;;;18.50;18.00;;;;;;;;6311473;22;10962;-81
2023/05/14 18:04:56;;;;;;;;;17.75;15.75;;;;;;;;6311098;22;8900;-81
2023/05/14 18:07:21;;;;;;;;;20.00;19.00;;;;;;;;6311245;22;8737;-80
2023/05/14 18:09:47;;;;;;;;;19.00;19.00;;;;;;;;6311700;22;9977;-81
2023/05/14 18:12:12;;;;;;;;;17.75;17.75;;;;;;;;6312171;22;8811;-82
2023/05/14 18:14:37;;;;;;;;;22.50;20.25;;;;;;;;6290155;22;8778;-79
2023/05/14 18:17:03;;;;;;;;;14.25;14.25;;;;;;;;6282970;22;9502;-80
2023/05/14 18:19:28;;;;;;;;;16.25;15.50;;;;;;;;6280844;22;9526;-80
2023/05/14 18:21:54;;;;;;;;;19.50;19.50;;;;;;;;6281503;22;8750;-80
2023/05/14 18:24:19;;;;;;;;;19.00;17.25;;;;;;;;6254378;22;8769;-80
2023/05/14 18:26:44;;;;;;;;;18.75;17.75;;;;;;;;6281523;22;11316;-81
2023/05/14 18:29:09;;;;;;;;;19.75;18.75;;;;;;;;6282136;22;8762;-81
2023/05/14 18:31:35;;;;;;;;;20.75;19.25;;;;;;;;6282267;22;8796;-75
2023/05/14 18:34:00;;;;;;;;;17.50;17.50;;;;;;;;6281688;22;8770;-77
2023/05/14 18:36:25;;;;;;;;;24.25;23.25;;;;;;;;6282429;22;8771;-80
2023/05/14 18:38:50;;;;;;;;;18.75;18.75;;;;;;;;6281333;22;8793;-78
2023/05/14 18:41:15;;;;;;;;;21.75;18.25;;;;;;;;6281167;22;8759;-77
2023/05/14 18:43:40;;;;;;;;;21.25;20.00;;;;;;;;6281093;22;8890;-73
2023/05/14 18:46:06;;;;;;;;;18.25;17.50;;;;;;;;6281564;22;8758;-73
2023/05/14 18:48:31;;;;;;;;;23.25;23.25;;;;;;;;6280794;22;8766;-74
2023/05/14 18:50:56;;;;;;;;;18.25;16.50;;;;;;;;6281580;22;8778;-78
2023/05/14 18:53:21;;;;;;;;;22.75;21.75;;;;;;;;6281443;22;8755;-75
2023/05/14 18:55:46;;;;;;;;;23.50;21.00;;;;;;;;6280427;22;8856;-77
2023/05/14 18:58:13;;;;;;;;;17.50;16.50;;;;;;;;6281854;22;8756;-75
2023/05/14 19:00:38;;;;;;;;;16.50;16.50;;;;;;;;6254006;22;8766;-77
2023/05/14 19:03:03;;;;;;;;;19.00;16.50;;;;;;;;6281971;22;10992;-84
2023/05/14 19:05:29;;;;;;;;;18.50;18.00;;;;;;;;6283588;22;8742;-84
2023/05/14 19:07:55;;;;;;;;;20.75;18.75;;;;;;;;6281860;22;8840;-80
2023/05/14 19:10:20;;;;;;;;;23.00;22.25;;;;;;;;6281869;22;8758;-79
2023/05/14 19:12:46;;;;;;;;;17.00;15.75;;;;;;;;6281790;22;11313;-79
2023/05/14 19:15:11;;;;;;;;;21.00;20.00;;;;;;;;6277507;22;8774;-79
2023/05/14 19:17:36;;;;;;;;;20.25;18.50;;;;;;;;6281901;22;8766;-78
2023/05/14 19:20:03;;;;;;;;;28.50;27.50;;;;;;;;6281752;22;9495;-78
2023/05/14 19:22:28;;;;;;;;;20.75;19.00;;;;;;;;6281609;22;8803;-79
2023/05/14 19:24:53;;;;;;;;;21.25;21.25;;;;;;;;6282353;22;11234;-82
2023/05/14 19:27:19;;;;;;;;;20.00;18.25;;;;;;;;6279902;22;8766;-80
2023/05/14 19:29:44;;;;;;;;;22.25;22.25;;;;;;;;6281513;22;8848;-82
2023/05/14 19:32:09;;;;;;;;;22.25;21.00;;;;;;;;6281471;22;11601;-79
2023/05/14 19:34:35;;;;;;;;;22.00;21.50;;;;;;;;6279684;22;8840;-78
2023/05/14 19:37:00;;;;;;;;;21.25;21.25;;;;;;;;6282083;22;8881;-83
2023/05/14 19:39:25;;;;;;;;;23.00;22.50;;;;;;;;6282036;22;8778;-78
2023/05/14 19:41:50;;;;;;;;;28.25;24.00;;;;;;;;6282203;22;8742;-84
2023/05/14 19:44:15;;;;;;;;;24.00;21.50;;;;;;;;6280004;22;8766;-85
2023/05/14 19:46:41;;;;;;;;;28.25;26.75;;;;;;;;6278665;22;8769;-84
2023/05/14 19:51:41;;;;;;;;;23.25;21.50;;;;;;;;6143733;22;8760;-78
2023/05/14 19:54:06;;;;;;;;;23.00;23.00;;;;;;;;6311552;22;11593;-81
2023/05/14 19:56:31;;;;;;;;;28.00;26.25;;;;;;;;6312626;22;8807;-79
2023/05/14 19:58:57;;;;;;;;;30.50;27.75;;;;;;;;6310514;22;10083;-76
2023/05/14 20:01:22;;;;;;;;;26.75;25.50;;;;;;;;6311990;22;8826;-77
2023/05/14 20:03:47;;;;;;;;;28.25;22.50;;;;;;;;6312047;22;8752;-75
2023/05/14 20:06:12;;;;;;;;;29.50;28.00;;;;;;;;6312279;22;8764;-77
2023/05/14 20:08:38;;;;;;;;;24.00;21.25;;;;;;;;6310942;22;8774;-77
2023/05/14 20:11:03;;;;;;;;;23.25;22.50;;;;;;;;6312159;22;8834;-76
2023/05/14 20:13:34;;;;;;;;;27.75;24.50;;;;;;;;6284174;22;8764;-76
2023/05/14 20:15:59;;;;;;;;;25.00;22.75;;;;;;;;6312385;22;9999;-78
2023/05/14 20:18:24;;;;;;;;;26.25;24.00;;;;;;;;6312484;22;11402;-77
2023/05/14 20:20:50;;;;;;;;;24.50;23.50;;;;;;;;6311991;22;8890;-76
2023/05/14 20:23:15;;;;;;;;;27.50;26.00;;;;;;;;6284220;22;8748;-76
2023/05/14 20:25:41;;;;;;;;;21.50;21.50;;;;;;;;6311408;22;8740;-77
2023/05/14 20:28:07;;;;;;;;;24.00;23.75;;;;;;;;6311239;22;8740;-76
2023/05/14 20:30:32;;;;;;;;;25.50;22.00;;;;;;;;6310641;22;11412;-78
2023/05/14 20:32:57;;;;;;;;;22.25;21.75;;;;;;;;6311279;22;8784;-76
2023/05/14 20:35:22;;;;;;;;;24.00;22.75;;;;;;;;6311649;22;8760;-76
2023/05/14 20:37:48;;;;;;;;;22.50;21.25;;;;;;;;6312582;22;8780;-77
2023/05/14 20:40:13;;;;;;;;;24.50;22.50;;;;;;;;6284190;22;8756;-75
2023/05/14 20:42:39;;;;;;;;;30.25;27.75;;;;;;;;6284364;22;8778;-75
2023/05/14 20:45:05;;;;;;;;;26.50;25.00;;;;;;;;6306160;22;8756;-75
2023/05/14 20:47:32;;;;;;;;;27.75;26.75;;;;;;;;6312227;22;8721;-76
2023/05/14 20:49:57;;;;;;;;;24.75;23.50;;;;;;;;6310913;22;11397;-76
2023/05/14 20:52:23;;;;;;;;;25.00;25.00;;;;;;;;6311007;22;11441;-77
2023/05/14 20:54:48;;;;;;;;;23.75;22.50;;;;;;;;6311534;22;8729;-79
2023/05/14 20:57:14;;;;;;;;;23.75;23.75;;;;;;;;6311500;22;8768;-79
2023/05/14 20:59:39;;;;;;;;;27.00;24.50;;;;;;;;6311372;22;8736;-80
2023/05/14 21:02:05;;;;;;;;;28.25;25.50;;;;;;;;6311528;22;11422;-77
2023/05/14 21:04:30;;;;;;;;;26.75;26.25;;;;;;;;6310832;22;8755;-77
2023/05/14 21:06:55;;;;;;;;;28.25;28.25;;;;;;;;6311729;22;8876;-78
2023/05/14 21:09:22;;;;;;;;;28.00;26.75;;;;;;;;6310844;22;8804;-77
2023/05/14 21:11:47;;;;;;;;;29.25;27.25;;;;;;;;6311197;22;8737;-77
2023/05/14 21:14:12;;;;;;;;;27.25;27.25;;;;;;;;6309108;22;11407;-77
2023/05/14 21:16:38;;;;;;;;;30.25;29.75;;;;;;;;6308261;22;8763;-77
2023/05/14 21:19:03;;;;;;;;;36.25;32.75;;;;;;;;6311376;22;8830;-78
2023/05/14 21:21:28;;;;;;;;;35.25;33.75;;;;;;;;6312084;22;8756;-77
2023/05/14 21:23:53;;;;;;;;;31.50;30.00;;;;;;;;6311545;22;8756;-78
2023/05/14 21:26:20;;;;;;;;;30.50;28.50;;;;;;;;6283748;22;9520;-77
2023/05/14 21:28:45;;;;;;;;;28.50;28.50;;;;;;;;6311408;22;8741;-77
2023/05/14 21:31:10;;;;;;;;;32.25;31.75;;;;;;;;6311176;22;11436;-76